sensor_id;sensor_type;location;lat;lon;timestamp;P1;durP1;ratioP1;P2;durP2;ratioP2
10303;SDS011;5197;48.152;8.590;2022-09-02T00:01:26;4.57;;;4.27;;
10303;SDS011;5197;48.152;8.590;2022-09-02T00:03:59;5.93;;;4.13;;
10303;SDS011;5197;48.152;8.590;2022-09-02T00:06:28;4.70;;;4.00;;
10303;SDS011;5197;48.152;8.590;2022-09-02T00:08:57;4.30;;;4.00;;
10303;SDS011;5197;48.152;8.590;2022-09-02T00:11:26;4.00;;;3.80;;
10303;SDS011;5197;48.152;8.590;2022-09-02T00:13:56;4.60;;;4.23;;
10303;SDS011;5197;48.152;8.590;2022-09-02T00:16:25;4.00;;;3.70;;
10303;SDS011;5197;48.152;8.590;2022-09-02T00:18:52;4.77;;;3.77;;
10303;SDS011;5197;48.152;8.590;2022-09-02T00:21:21;4.60;;;4.30;;
10303;SDS011;5197;48.152;8.590;2022-09-02T00:23:50;4.50;;;4.20;;
10303;SDS011;5197;48.152;8.590;2022-09-02T00:26:17;4.67;;;4.27;;
10303;SDS011;5197;48.152;8.590;2022-09-02T00:28:45;4.10;;;3.80;;
10303;SDS011;5197;48.152;8.590;2022-09-02T00:31:21;3.83;;;3.57;;
10303;SDS011;5197;48.152;8.590;2022-09-02T00:33:50;3.93;;;3.47;;
10303;SDS011;5197;48.152;8.590;2022-09-02T00:36:17;4.00;;;3.70;;
10303;SDS011;5197;48.152;8.590;2022-09-02T00:38:45;6.67;;;4.47;;
10303;SDS011;5197;48.152;8.590;2022-09-02T00:41:12;4.60;;;4.20;;
10303;SDS011;5197;48.152;8.590;2022-09-02T00:46:15;3.83;;;3.50;;
10303;SDS011;5197;48.152;8.590;2022-09-02T00:48:45;4.87;;;3.80;;
10303;SDS011;5197;48.152;8.590;2022-09-02T00:51:17;4.33;;;4.03;;
10303;SDS011;5197;48.152;8.590;2022-09-02T00:53:45;4.80;;;4.50;;
10303;SDS011;5197;48.152;8.590;2022-09-02T00:56:19;5.40;;;5.00;;
10303;SDS011;5197;48.152;8.590;2022-09-02T00:58:48;5.70;;;5.20;;
10303;SDS011;5197;48.152;8.590;2022-09-02T01:01:16;5.00;;;4.50;;
10303;SDS011;5197;48.152;8.590;2022-09-02T01:03:44;5.23;;;4.83;;
10303;SDS011;5197;48.152;8.590;2022-09-02T01:06:11;6.00;;;5.50;;
10303;SDS011;5197;48.152;8.590;2022-09-02T01:08:45;7.60;;;5.17;;
10303;SDS011;5197;48.152;8.590;2022-09-02T01:11:15;5.80;;;5.37;;
10303;SDS011;5197;48.152;8.590;2022-09-02T01:13:44;5.63;;;4.83;;
10303;SDS011;5197;48.152;8.590;2022-09-02T01:16:17;5.83;;;4.80;;
10303;SDS011;5197;48.152;8.590;2022-09-02T01:18:51;5.90;;;5.20;;
10303;SDS011;5197;48.152;8.590;2022-09-02T01:21:21;5.57;;;5.17;;
10303;SDS011;5197;48.152;8.590;2022-09-02T01:23:49;5.53;;;5.10;;
10303;SDS011;5197;48.152;8.590;2022-09-02T01:26:16;5.40;;;5.00;;
10303;SDS011;5197;48.152;8.590;2022-09-02T01:28:44;7.90;;;5.67;;
10303;SDS011;5197;48.152;8.590;2022-09-02T01:31:12;5.53;;;5.03;;
10303;SDS011;5197;48.152;8.590;2022-09-02T01:33:39;5.53;;;5.13;;
10303;SDS011;5197;48.152;8.590;2022-09-02T01:36:08;5.33;;;4.93;;
10303;SDS011;5197;48.152;8.590;2022-09-02T01:38:36;5.60;;;5.20;;
10303;SDS011;5197;48.152;8.590;2022-09-02T01:41:04;5.60;;;5.10;;
10303;SDS011;5197;48.152;8.590;2022-09-02T01:43:31;5.13;;;4.73;;
10303;SDS011;5197;48.152;8.590;2022-09-02T01:45:58;5.93;;;5.20;;
10303;SDS011;5197;48.152;8.590;2022-09-02T01:48:26;5.50;;;5.00;;
10303;SDS011;5197;48.152;8.590;2022-09-02T01:50:58;4.70;;;4.40;;
10303;SDS011;5197;48.152;8.590;2022-09-02T01:53:27;5.70;;;5.13;;
10303;SDS011;5197;48.152;8.590;2022-09-02T01:55:55;6.90;;;4.97;;
10303;SDS011;5197;48.152;8.590;2022-09-02T01:58:22;5.20;;;4.80;;
10303;SDS011;5197;48.152;8.590;2022-09-02T02:00:49;5.23;;;4.80;;
10303;SDS011;5197;48.152;8.590;2022-09-02T02:03:16;4.83;;;4.33;;
10303;SDS011;5197;48.152;8.590;2022-09-02T02:05:43;4.33;;;4.03;;
10303;SDS011;5197;48.152;8.590;2022-09-02T02:08:10;4.50;;;4.20;;
10303;SDS011;5197;48.152;8.590;2022-09-02T02:10:39;4.80;;;4.40;;
10303;SDS011;5197;48.152;8.590;2022-09-02T02:13:08;3.97;;;3.70;;
10303;SDS011;5197;48.152;8.590;2022-09-02T02:15:40;5.40;;;4.27;;
10303;SDS011;5197;48.152;8.590;2022-09-02T02:18:08;4.40;;;4.10;;
10303;SDS011;5197;48.152;8.590;2022-09-02T02:20:36;5.10;;;4.70;;
10303;SDS011;5197;48.152;8.590;2022-09-02T02:23:04;4.90;;;4.40;;
10303;SDS011;5197;48.152;8.590;2022-09-02T02:25:32;4.83;;;4.50;;
10303;SDS011;5197;48.152;8.590;2022-09-02T02:27:59;5.67;;;5.03;;
10303;SDS011;5197;48.152;8.590;2022-09-02T02:30:28;5.53;;;5.10;;
10303;SDS011;5197;48.152;8.590;2022-09-02T02:32:55;4.83;;;4.40;;
10303;SDS011;5197;48.152;8.590;2022-09-02T02:35:22;8.90;;;4.97;;
10303;SDS011;5197;48.152;8.590;2022-09-02T02:37:49;5.50;;;5.10;;
10303;SDS011;5197;48.152;8.590;2022-09-02T02:40:18;5.10;;;4.80;;
10303;SDS011;5197;48.152;8.590;2022-09-02T02:42:47;5.33;;;4.93;;
10303;SDS011;5197;48.152;8.590;2022-09-02T02:45:15;6.57;;;5.37;;
10303;SDS011;5197;48.152;8.590;2022-09-02T02:47:42;5.37;;;4.97;;
10303;SDS011;5197;48.152;8.590;2022-09-02T02:50:13;5.17;;;4.67;;
10303;SDS011;5197;48.152;8.590;2022-09-02T02:52:42;5.40;;;4.90;;
10303;SDS011;5197;48.152;8.590;2022-09-02T02:55:10;5.33;;;4.90;;
10303;SDS011;5197;48.152;8.590;2022-09-02T02:57:39;5.23;;;4.80;;
10303;SDS011;5197;48.152;8.590;2022-09-02T03:00:13;5.43;;;4.80;;
10303;SDS011;5197;48.152;8.590;2022-09-02T03:02:58;5.97;;;5.57;;
10303;SDS011;5197;48.152;8.590;2022-09-02T03:05:28;5.00;;;4.60;;
10303;SDS011;5197;48.152;8.590;2022-09-02T03:07:56;5.20;;;4.90;;
10303;SDS011;5197;48.152;8.590;2022-09-02T03:10:23;5.70;;;5.10;;
10303;SDS011;5197;48.152;8.590;2022-09-02T03:12:52;5.40;;;5.00;;
10303;SDS011;5197;48.152;8.590;2022-09-02T03:15:19;5.07;;;4.57;;
10303;SDS011;5197;48.152;8.590;2022-09-02T03:17:46;5.67;;;5.27;;
10303;SDS011;5197;48.152;8.590;2022-09-02T03:20:14;5.37;;;4.97;;
10303;SDS011;5197;48.152;8.590;2022-09-02T03:22:44;4.47;;;4.17;;
10303;SDS011;5197;48.152;8.590;2022-09-02T03:25:13;5.00;;;4.70;;
10303;SDS011;5197;48.152;8.590;2022-09-02T03:27:43;6.33;;;4.80;;
10303;SDS011;5197;48.152;8.590;2022-09-02T03:30:13;4.90;;;4.53;;
10303;SDS011;5197;48.152;8.590;2022-09-02T03:32:43;4.73;;;4.43;;
10303;SDS011;5197;48.152;8.590;2022-09-02T03:35:12;4.27;;;4.07;;
10303;SDS011;5197;48.152;8.590;2022-09-02T03:37:42;4.63;;;4.03;;
10303;SDS011;5197;48.152;8.590;2022-09-02T03:40:11;4.33;;;4.03;;
10303;SDS011;5197;48.152;8.590;2022-09-02T03:42:40;4.80;;;4.43;;
10303;SDS011;5197;48.152;8.590;2022-09-02T03:45:08;4.50;;;4.10;;
10303;SDS011;5197;48.152;8.590;2022-09-02T03:47:36;4.63;;;4.33;;
10303;SDS011;5197;48.152;8.590;2022-09-02T03:50:09;4.70;;;4.30;;
10303;SDS011;5197;48.152;8.590;2022-09-02T03:52:36;4.77;;;4.20;;
10303;SDS011;5197;48.152;8.590;2022-09-02T03:55:04;5.00;;;4.60;;
10303;SDS011;5197;48.152;8.590;2022-09-02T03:57:33;5.10;;;4.70;;
10303;SDS011;5197;48.152;8.590;2022-09-02T04:00:03;5.07;;;4.67;;
10303;SDS011;5197;48.152;8.590;2022-09-02T04:02:33;5.30;;;4.80;;
10303;SDS011;5197;48.152;8.590;2022-09-02T04:05:00;4.70;;;4.33;;
10303;SDS011;5197;48.152;8.590;2022-09-02T04:07:27;5.63;;;5.13;;
10303;SDS011;5197;48.152;8.590;2022-09-02T04:09:54;5.40;;;5.00;;
10303;SDS011;5197;48.152;8.590;2022-09-02T04:12:21;7.87;;;5.63;;
10303;SDS011;5197;48.152;8.590;2022-09-02T04:14:57;6.07;;;5.47;;
10303;SDS011;5197;48.152;8.590;2022-09-02T04:17:24;5.60;;;5.20;;
10303;SDS011;5197;48.152;8.590;2022-09-02T04:19:53;5.77;;;5.37;;
10303;SDS011;5197;48.152;8.590;2022-09-02T04:22:20;6.10;;;5.60;;
10303;SDS011;5197;48.152;8.590;2022-09-02T04:24:47;7.50;;;6.77;;
10303;SDS011;5197;48.152;8.590;2022-09-02T04:27:14;6.40;;;5.17;;
10303;SDS011;5197;48.152;8.590;2022-09-02T04:29:41;6.60;;;6.00;;
10303;SDS011;5197;48.152;8.590;2022-09-02T04:32:08;6.13;;;5.73;;
10303;SDS011;5197;48.152;8.590;2022-09-02T04:34:35;6.73;;;6.17;;
10303;SDS011;5197;48.152;8.590;2022-09-02T04:37:02;6.07;;;5.57;;
10303;SDS011;5197;48.152;8.590;2022-09-02T04:39:29;6.03;;;5.63;;
10303;SDS011;5197;48.152;8.590;2022-09-02T04:41:56;5.97;;;5.53;;
10303;SDS011;5197;48.152;8.590;2022-09-02T04:44:23;6.03;;;5.53;;
10303;SDS011;5197;48.152;8.590;2022-09-02T04:46:51;6.17;;;5.77;;
10303;SDS011;5197;48.152;8.590;2022-09-02T04:49:18;5.97;;;5.47;;
10303;SDS011;5197;48.152;8.590;2022-09-02T04:51:45;6.07;;;5.47;;
10303;SDS011;5197;48.152;8.590;2022-09-02T04:54:12;5.80;;;5.37;;
10303;SDS011;5197;48.152;8.590;2022-09-02T04:56:39;6.33;;;5.80;;
10303;SDS011;5197;48.152;8.590;2022-09-02T04:59:06;6.37;;;5.87;;
10303;SDS011;5197;48.152;8.590;2022-09-02T05:01:34;5.90;;;5.50;;
10303;SDS011;5197;48.152;8.590;2022-09-02T05:04:05;6.23;;;5.80;;
10303;SDS011;5197;48.152;8.590;2022-09-02T05:06:35;6.20;;;5.70;;
10303;SDS011;5197;48.152;8.590;2022-09-02T05:09:09;6.43;;;5.83;;
10303;SDS011;5197;48.152;8.590;2022-09-02T05:11:36;9.00;;;5.93;;
10303;SDS011;5197;48.152;8.590;2022-09-02T05:14:04;7.30;;;6.60;;
10303;SDS011;5197;48.152;8.590;2022-09-02T05:16:33;6.60;;;6.00;;
10303;SDS011;5197;48.152;8.590;2022-09-02T05:19:02;7.27;;;6.40;;
10303;SDS011;5197;48.152;8.590;2022-09-02T05:21:31;7.83;;;5.83;;
10303;SDS011;5197;48.152;8.590;2022-09-02T05:23:59;6.70;;;5.73;;
10303;SDS011;5197;48.152;8.590;2022-09-02T05:26:26;6.60;;;6.03;;
10303;SDS011;5197;48.152;8.590;2022-09-02T05:28:53;6.67;;;6.07;;
10303;SDS011;5197;48.152;8.590;2022-09-02T05:31:20;7.20;;;5.30;;
10303;SDS011;5197;48.152;8.590;2022-09-02T05:33:48;8.33;;;5.50;;
10303;SDS011;5197;48.152;8.590;2022-09-02T05:36:17;8.57;;;5.73;;
10303;SDS011;5197;48.152;8.590;2022-09-02T05:38:46;8.70;;;5.27;;
10303;SDS011;5197;48.152;8.590;2022-09-02T05:41:15;6.13;;;5.63;;
10303;SDS011;5197;48.152;8.590;2022-09-02T05:43:45;5.10;;;4.67;;
10303;SDS011;5197;48.152;8.590;2022-09-02T05:46:14;4.97;;;4.60;;
10303;SDS011;5197;48.152;8.590;2022-09-02T05:48:44;5.90;;;5.50;;
10303;SDS011;5197;48.152;8.590;2022-09-02T05:51:44;9.07;;;5.40;;
10303;SDS011;5197;48.152;8.590;2022-09-02T05:54:16;6.97;;;5.70;;
10303;SDS011;5197;48.152;8.590;2022-09-02T05:56:50;9.17;;;5.30;;
10303;SDS011;5197;48.152;8.590;2022-09-02T05:59:19;6.90;;;5.27;;
10303;SDS011;5197;48.152;8.590;2022-09-02T06:01:47;10.70;;;5.40;;
10303;SDS011;5197;48.152;8.590;2022-09-02T06:04:15;5.03;;;4.63;;
10303;SDS011;5197;48.152;8.590;2022-09-02T06:06:42;8.07;;;4.67;;
10303;SDS011;5197;48.152;8.590;2022-09-02T06:09:11;5.47;;;4.33;;
10303;SDS011;5197;48.152;8.590;2022-09-02T06:11:41;8.43;;;4.43;;
10303;SDS011;5197;48.152;8.590;2022-09-02T06:14:18;6.30;;;4.10;;
10303;SDS011;5197;48.152;8.590;2022-09-02T06:16:48;6.57;;;3.83;;
10303;SDS011;5197;48.152;8.590;2022-09-02T06:19:16;5.57;;;3.43;;
10303;SDS011;5197;48.152;8.590;2022-09-02T06:21:46;6.73;;;3.40;;
10303;SDS011;5197;48.152;8.590;2022-09-02T06:24:14;4.83;;;3.53;;
10303;SDS011;5197;48.152;8.590;2022-09-02T06:26:41;5.40;;;3.10;;
10303;SDS011;5197;48.152;8.590;2022-09-02T06:29:08;4.27;;;2.77;;
10303;SDS011;5197;48.152;8.590;2022-09-02T06:31:39;3.60;;;2.67;;
10303;SDS011;5197;48.152;8.590;2022-09-02T06:34:10;2.47;;;2.37;;
10303;SDS011;5197;48.152;8.590;2022-09-02T06:36:39;3.73;;;2.23;;
10303;SDS011;5197;48.152;8.590;2022-09-02T06:39:10;2.30;;;2.10;;
10303;SDS011;5197;48.152;8.590;2022-09-02T06:41:39;2.60;;;2.00;;
10303;SDS011;5197;48.152;8.590;2022-09-02T06:44:07;1.90;;;1.80;;
10303;SDS011;5197;48.152;8.590;2022-09-02T06:46:37;5.30;;;1.90;;
10303;SDS011;5197;48.152;8.590;2022-09-02T06:49:08;2.13;;;1.97;;
10303;SDS011;5197;48.152;8.590;2022-09-02T06:51:40;3.27;;;1.80;;
10303;SDS011;5197;48.152;8.590;2022-09-02T06:54:09;1.90;;;1.80;;
10303;SDS011;5197;48.152;8.590;2022-09-02T06:56:39;7.72;;;4.00;;
10303;SDS011;5197;48.152;8.590;2022-09-02T06:59:14;3.65;;;1.70;;
10303;SDS011;5197;48.152;8.590;2022-09-02T07:01:41;1.95;;;1.85;;
10303;SDS011;5197;48.152;8.590;2022-09-02T07:04:09;1.88;;;1.77;;
10303;SDS011;5197;48.152;8.590;2022-09-02T07:06:58;1.70;;;1.70;;
10303;SDS011;5197;48.152;8.590;2022-09-02T07:09:25;2.10;;;2.00;;
10303;SDS011;5197;48.152;8.590;2022-09-02T07:12:00;2.47;;;1.90;;
10303;SDS011;5197;48.152;8.590;2022-09-02T07:14:34;3.15;;;1.70;;
10303;SDS011;5197;48.152;8.590;2022-09-02T07:17:03;4.00;;;1.90;;
10303;SDS011;5197;48.152;8.590;2022-09-02T07:19:30;1.90;;;1.80;;
10303;SDS011;5197;48.152;8.590;2022-09-02T07:21:57;3.13;;;1.98;;
10303;SDS011;5197;48.152;8.590;2022-09-02T07:24:24;2.38;;;1.73;;
10303;SDS011;5197;48.152;8.590;2022-09-02T07:26:51;1.73;;;1.63;;
10303;SDS011;5197;48.152;8.590;2022-09-02T07:29:21;2.08;;;1.98;;
10303;SDS011;5197;48.152;8.590;2022-09-02T07:31:48;2.38;;;1.50;;
10303;SDS011;5197;48.152;8.590;2022-09-02T07:34:16;2.35;;;1.70;;
10303;SDS011;5197;48.152;8.590;2022-09-02T07:36:44;1.70;;;1.60;;
10303;SDS011;5197;48.152;8.590;2022-09-02T07:39:12;2.15;;;1.60;;
10303;SDS011;5197;48.152;8.590;2022-09-02T07:41:41;2.28;;;1.77;;
10303;SDS011;5197;48.152;8.590;2022-09-02T07:44:09;2.85;;;1.70;;
10303;SDS011;5197;48.152;8.590;2022-09-02T07:46:37;3.38;;;1.77;;
10303;SDS011;5197;48.152;8.590;2022-09-02T07:49:05;3.42;;;1.83;;
10303;SDS011;5197;48.152;8.590;2022-09-02T07:51:36;1.83;;;1.73;;
10303;SDS011;5197;48.152;8.590;2022-09-02T07:54:05;1.88;;;1.75;;
10303;SDS011;5197;48.152;8.590;2022-09-02T07:56:34;1.70;;;1.60;;
10303;SDS011;5197;48.152;8.590;2022-09-02T07:59:01;1.70;;;1.60;;
10303;SDS011;5197;48.152;8.590;2022-09-02T08:01:28;1.75;;;1.65;;
10303;SDS011;5197;48.152;8.590;2022-09-02T08:03:56;2.83;;;1.60;;
10303;SDS011;5197;48.152;8.590;2022-09-02T08:06:28;1.98;;;1.88;;
10303;SDS011;5197;48.152;8.590;2022-09-02T08:09:02;2.55;;;1.65;;
10303;SDS011;5197;48.152;8.590;2022-09-02T08:11:32;1.58;;;1.50;;
10303;SDS011;5197;48.152;8.590;2022-09-02T08:14:02;1.48;;;1.38;;
10303;SDS011;5197;48.152;8.590;2022-09-02T08:16:28;1.60;;;1.50;;
10303;SDS011;5197;48.152;8.590;2022-09-02T08:18:55;3.95;;;1.75;;
10303;SDS011;5197;48.152;8.590;2022-09-02T08:21:23;1.50;;;1.50;;
10303;SDS011;5197;48.152;8.590;2022-09-02T08:23:53;1.75;;;1.65;;
10303;SDS011;5197;48.152;8.590;2022-09-02T08:26:20;2.30;;;1.70;;
10303;SDS011;5197;48.152;8.590;2022-09-02T08:28:48;1.40;;;1.40;;
10303;SDS011;5197;48.152;8.590;2022-09-02T08:31:15;2.28;;;1.55;;
10303;SDS011;5197;48.152;8.590;2022-09-02T08:33:43;2.05;;;1.60;;
10303;SDS011;5197;48.152;8.590;2022-09-02T08:36:11;2.90;;;1.50;;
10303;SDS011;5197;48.152;8.590;2022-09-02T08:38:40;1.73;;;1.45;;
10303;SDS011;5197;48.152;8.590;2022-09-02T08:41:12;1.65;;;1.55;;
10303;SDS011;5197;48.152;8.590;2022-09-02T08:43:46;2.03;;;1.42;;
10303;SDS011;5197;48.152;8.590;2022-09-02T08:46:15;1.95;;;1.50;;
10303;SDS011;5197;48.152;8.590;2022-09-02T08:48:45;1.85;;;1.70;;
10303;SDS011;5197;48.152;8.590;2022-09-02T08:51:33;1.83;;;1.73;;
10303;SDS011;5197;48.152;8.590;2022-09-02T08:54:04;2.15;;;1.67;;
10303;SDS011;5197;48.152;8.590;2022-09-02T08:56:35;2.00;;;1.80;;
10303;SDS011;5197;48.152;8.590;2022-09-02T08:59:02;3.30;;;1.70;;
10303;SDS011;5197;48.152;8.590;2022-09-02T09:18:22;2.30;;;1.90;;
10303;SDS011;5197;48.152;8.590;2022-09-02T09:21:15;1.63;;;1.52;;
10303;SDS011;5197;48.152;8.590;2022-09-02T09:23:42;1.75;;;1.65;;
10303;SDS011;5197;48.152;8.590;2022-09-02T09:26:11;1.92;;;1.70;;
10303;SDS011;5197;48.152;8.590;2022-09-02T09:28:43;2.33;;;1.90;;
10303;SDS011;5197;48.152;8.590;2022-09-02T09:31:17;1.83;;;1.80;;
10303;SDS011;5197;48.152;8.590;2022-09-02T09:33:55;1.92;;;1.83;;
10303;SDS011;5197;48.152;8.590;2022-09-02T09:39:27;3.38;;;1.80;;
10303;SDS011;5197;48.152;8.590;2022-09-02T09:41:59;1.92;;;1.83;;
10303;SDS011;5197;48.152;8.590;2022-09-02T09:49:49;1.63;;;1.63;;
10303;SDS011;5197;48.152;8.590;2022-09-02T09:52:34;5.03;;;1.60;;
10303;SDS011;5197;48.152;8.590;2022-09-02T09:55:12;1.98;;;1.80;;
10303;SDS011;5197;48.152;8.590;2022-09-02T09:57:40;1.77;;;1.70;;
10303;SDS011;5197;48.152;8.590;2022-09-02T10:00:18;3.22;;;1.70;;
10303;SDS011;5197;48.152;8.590;2022-09-02T10:03:00;2.28;;;1.77;;
10303;SDS011;5197;48.152;8.590;2022-09-02T10:05:37;4.28;;;1.70;;
10303;SDS011;5197;48.152;8.590;2022-09-02T10:08:18;2.70;;;1.70;;
10303;SDS011;5197;48.152;8.590;2022-09-02T10:11:00;1.65;;;1.55;;
10303;SDS011;5197;48.152;8.590;2022-09-02T10:13:31;2.13;;;1.60;;
10303;SDS011;5197;48.152;8.590;2022-09-02T10:27:15;1.65;;;1.55;;
10303;SDS011;5197;48.152;8.590;2022-09-02T10:37:42;1.88;;;1.77;;
10303;SDS011;5197;48.152;8.590;2022-09-02T10:40:51;2.75;;;1.70;;
10303;SDS011;5197;48.152;8.590;2022-09-02T10:46:23;1.67;;;1.58;;
10303;SDS011;5197;48.152;8.590;2022-09-02T10:49:11;1.73;;;1.63;;
10303;SDS011;5197;48.152;8.590;2022-09-02T10:57:29;1.77;;;1.65;;
10303;SDS011;5197;48.152;8.590;2022-09-02T11:05:42;2.25;;;1.50;;
10303;SDS011;5197;48.152;8.590;2022-09-02T11:11:07;1.73;;;1.58;;
10303;SDS011;5197;48.152;8.590;2022-09-02T11:17:18;2.20;;;1.80;;
10303;SDS011;5197;48.152;8.590;2022-09-02T11:19:45;1.40;;;1.40;;
10303;SDS011;5197;48.152;8.590;2022-09-02T11:22:27;1.98;;;1.60;;
10303;SDS011;5197;48.152;8.590;2022-09-02T11:25:23;1.55;;;1.45;;
10303;SDS011;5197;48.152;8.590;2022-09-02T11:31:01;1.70;;;1.60;;
10303;SDS011;5197;48.152;8.590;2022-09-02T11:36:09;1.67;;;1.58;;
10303;SDS011;5197;48.152;8.590;2022-09-02T11:38:41;1.40;;;1.38;;
10303;SDS011;5197;48.152;8.590;2022-09-02T11:41:27;1.30;;;1.30;;
10303;SDS011;5197;48.152;8.590;2022-09-02T11:54:27;1.73;;;1.63;;
10303;SDS011;5197;48.152;8.590;2022-09-02T11:57:04;1.38;;;1.27;;
10303;SDS011;5197;48.152;8.590;2022-09-02T12:07:56;1.45;;;1.30;;
10303;SDS011;5197;48.152;8.590;2022-09-02T12:18:41;1.40;;;1.30;;
10303;SDS011;5197;48.152;8.590;2022-09-02T12:21:11;1.15;;;1.15;;
10303;SDS011;5197;48.152;8.590;2022-09-02T12:26:19;1.25;;;1.15;;
10303;SDS011;5197;48.152;8.590;2022-09-02T12:28:51;1.98;;;1.17;;
10303;SDS011;5197;48.152;8.590;2022-09-02T12:31:39;1.15;;;1.13;;
10303;SDS011;5197;48.152;8.590;2022-09-02T12:55:52;2.35;;;1.30;;
10303;SDS011;5197;48.152;8.590;2022-09-02T12:58:22;1.25;;;1.25;;
10303;SDS011;5197;48.152;8.590;2022-09-02T13:00:55;1.52;;;1.20;;
10303;SDS011;5197;48.152;8.590;2022-09-02T13:06:34;1.20;;;1.20;;
10303;SDS011;5197;48.152;8.590;2022-09-02T13:15:01;1.17;;;1.17;;
10303;SDS011;5197;48.152;8.590;2022-09-02T13:33:43;2.88;;;1.30;;
10303;SDS011;5197;48.152;8.590;2022-09-02T13:36:17;1.92;;;1.30;;
10303;SDS011;5197;48.152;8.590;2022-09-02T13:39:19;3.22;;;1.50;;
10303;SDS011;5197;48.152;8.590;2022-09-02T13:41:50;1.20;;;1.20;;
10303;SDS011;5197;48.152;8.590;2022-09-02T13:44:27;1.27;;;1.27;;
10303;SDS011;5197;48.152;8.590;2022-09-02T13:49:41;1.23;;;1.15;;
10303;SDS011;5197;48.152;8.590;2022-09-02T13:52:12;1.63;;;1.20;;
10303;SDS011;5197;48.152;8.590;2022-09-02T13:54:47;1.30;;;1.30;;
10303;SDS011;5197;48.152;8.590;2022-09-02T13:57:19;1.27;;;1.20;;
10303;SDS011;5197;48.152;8.590;2022-09-02T13:59:52;1.50;;;1.40;;
10303;SDS011;5197;48.152;8.590;2022-09-02T14:04:57;1.23;;;1.20;;
10303;SDS011;5197;48.152;8.590;2022-09-02T14:07:29;1.38;;;1.30;;
10303;SDS011;5197;48.152;8.590;2022-09-02T14:10:07;1.73;;;1.10;;
10303;SDS011;5197;48.152;8.590;2022-09-02T14:12:37;1.20;;;1.10;;
10303;SDS011;5197;48.152;8.590;2022-09-02T14:15:06;1.40;;;1.30;;
10303;SDS011;5197;48.152;8.590;2022-09-02T14:17:35;1.45;;;1.35;;
10303;SDS011;5197;48.152;8.590;2022-09-02T14:20:09;1.63;;;1.52;;
10303;SDS011;5197;48.152;8.590;2022-09-02T14:22:56;1.40;;;1.30;;
10303;SDS011;5197;48.152;8.590;2022-09-02T14:25:25;1.27;;;1.17;;
10303;SDS011;5197;48.152;8.590;2022-09-02T14:27:55;4.15;;;1.52;;
10303;SDS011;5197;48.152;8.590;2022-09-02T14:30:34;1.60;;;1.52;;
10303;SDS011;5197;48.152;8.590;2022-09-02T14:38:54;1.60;;;1.50;;
10303;SDS011;5197;48.152;8.590;2022-09-02T14:41:26;1.35;;;1.10;;
10303;SDS011;5197;48.152;8.590;2022-09-02T14:43:56;1.77;;;1.20;;
10303;SDS011;5197;48.152;8.590;2022-09-02T14:46:48;1.10;;;1.10;;
10303;SDS011;5197;48.152;8.590;2022-09-02T14:52:09;1.75;;;1.33;;
10303;SDS011;5197;48.152;8.590;2022-09-02T14:54:45;1.40;;;1.30;;
10303;SDS011;5197;48.152;8.590;2022-09-02T15:00:05;1.48;;;1.13;;
10303;SDS011;5197;48.152;8.590;2022-09-02T15:02:35;2.50;;;1.30;;
10303;SDS011;5197;48.152;8.590;2022-09-02T15:05:06;1.40;;;1.30;;
10303;SDS011;5197;48.152;8.590;2022-09-02T15:07:36;1.48;;;1.48;;
10303;SDS011;5197;48.152;8.590;2022-09-02T15:10:03;1.50;;;1.40;;
10303;SDS011;5197;48.152;8.590;2022-09-02T15:12:31;2.15;;;1.35;;
10303;SDS011;5197;48.152;8.590;2022-09-02T15:15:00;1.52;;;1.42;;
10303;SDS011;5197;48.152;8.590;2022-09-02T15:17:27;1.30;;;1.30;;
10303;SDS011;5197;48.152;8.590;2022-09-02T15:19:55;1.67;;;1.52;;
10303;SDS011;5197;48.152;8.590;2022-09-02T15:22:23;1.20;;;1.20;;
10303;SDS011;5197;48.152;8.590;2022-09-02T15:24:50;1.50;;;1.40;;
10303;SDS011;5197;48.152;8.590;2022-09-02T15:27:17;1.30;;;1.15;;
10303;SDS011;5197;48.152;8.590;2022-09-02T15:29:47;1.55;;;1.40;;
10303;SDS011;5197;48.152;8.590;2022-09-02T15:32:14;1.63;;;1.52;;
10303;SDS011;5197;48.152;8.590;2022-09-02T15:34:41;1.67;;;1.58;;
10303;SDS011;5197;48.152;8.590;2022-09-02T15:37:11;2.33;;;1.65;;
10303;SDS011;5197;48.152;8.590;2022-09-02T15:39:38;1.92;;;1.40;;
10303;SDS011;5197;48.152;8.590;2022-09-02T15:42:06;1.30;;;1.30;;
10303;SDS011;5197;48.152;8.590;2022-09-02T15:44:33;2.05;;;1.50;;
10303;SDS011;5197;48.152;8.590;2022-09-02T15:47:00;2.28;;;1.60;;
10303;SDS011;5197;48.152;8.590;2022-09-02T15:49:27;1.80;;;1.70;;
10303;SDS011;5197;48.152;8.590;2022-09-02T15:51:57;1.92;;;1.83;;
10303;SDS011;5197;48.152;8.590;2022-09-02T15:54:24;1.85;;;1.48;;
10303;SDS011;5197;48.152;8.590;2022-09-02T15:56:55;1.55;;;1.45;;
10303;SDS011;5197;48.152;8.590;2022-09-02T15:59:23;1.80;;;1.70;;
10303;SDS011;5197;48.152;8.590;2022-09-02T16:01:52;1.95;;;1.52;;
10303;SDS011;5197;48.152;8.590;2022-09-02T16:04:21;1.70;;;1.60;;
10303;SDS011;5197;48.152;8.590;2022-09-02T16:06:49;2.63;;;1.80;;
10303;SDS011;5197;48.152;8.590;2022-09-02T16:09:20;1.92;;;1.80;;
10303;SDS011;5197;48.152;8.590;2022-09-02T16:11:48;1.73;;;1.63;;
10303;SDS011;5197;48.152;8.590;2022-09-02T16:14:18;2.08;;;1.80;;
10303;SDS011;5197;48.152;8.590;2022-09-02T16:16:47;1.83;;;1.70;;
10303;SDS011;5197;48.152;8.590;2022-09-02T16:19:17;2.25;;;2.05;;
10303;SDS011;5197;48.152;8.590;2022-09-02T16:21:48;1.70;;;1.60;;
10303;SDS011;5197;48.152;8.590;2022-09-02T16:24:16;1.80;;;1.70;;
10303;SDS011;5197;48.152;8.590;2022-09-02T16:26:45;1.73;;;1.63;;
10303;SDS011;5197;48.152;8.590;2022-09-02T16:29:13;1.90;;;1.80;;
10303;SDS011;5197;48.152;8.590;2022-09-02T16:31:42;1.85;;;1.70;;
10303;SDS011;5197;48.152;8.590;2022-09-02T16:34:31;4.45;;;1.80;;
10303;SDS011;5197;48.152;8.590;2022-09-02T16:36:58;1.77;;;1.67;;
10303;SDS011;5197;48.152;8.590;2022-09-02T16:39:26;2.80;;;1.50;;
10303;SDS011;5197;48.152;8.590;2022-09-02T16:41:53;1.67;;;1.58;;
10303;SDS011;5197;48.152;8.590;2022-09-02T16:44:21;1.80;;;1.73;;
10303;SDS011;5197;48.152;8.590;2022-09-02T16:46:50;1.55;;;1.50;;
10303;SDS011;5197;48.152;8.590;2022-09-02T16:49:19;2.20;;;1.67;;
10303;SDS011;5197;48.152;8.590;2022-09-02T16:51:48;1.90;;;1.77;;
10303;SDS011;5197;48.152;8.590;2022-09-02T16:54:24;1.95;;;1.70;;
10303;SDS011;5197;48.152;8.590;2022-09-02T16:56:58;1.98;;;1.88;;
10303;SDS011;5197;48.152;8.590;2022-09-02T16:59:26;2.00;;;1.90;;
10303;SDS011;5197;48.152;8.590;2022-09-02T17:01:53;6.90;;;2.65;;
10303;SDS011;5197;48.152;8.590;2022-09-02T17:04:20;11.05;;;3.47;;
10303;SDS011;5197;48.152;8.590;2022-09-02T17:06:47;8.38;;;3.38;;
10303;SDS011;5197;48.152;8.590;2022-09-02T17:09:15;11.32;;;3.53;;
10303;SDS011;5197;48.152;8.590;2022-09-02T17:11:42;7.72;;;3.20;;
10303;SDS011;5197;48.152;8.590;2022-09-02T17:14:14;2.60;;;2.40;;
10303;SDS011;5197;48.152;8.590;2022-09-02T17:16:46;3.28;;;2.90;;
10303;SDS011;5197;48.152;8.590;2022-09-02T17:19:15;2.90;;;2.70;;
10303;SDS011;5197;48.152;8.590;2022-09-02T17:21:48;2.47;;;2.38;;
10303;SDS011;5197;48.152;8.590;2022-09-02T17:24:17;2.38;;;2.28;;
10303;SDS011;5197;48.152;8.590;2022-09-02T17:26:45;2.30;;;2.10;;
10303;SDS011;5197;48.152;8.590;2022-09-02T17:29:19;2.60;;;2.40;;
10303;SDS011;5197;48.152;8.590;2022-09-02T17:32:07;3.38;;;2.45;;
10303;SDS011;5197;48.152;8.590;2022-09-02T17:34:35;5.45;;;2.53;;
10303;SDS011;5197;48.152;8.590;2022-09-02T17:37:02;2.97;;;2.65;;
10303;SDS011;5197;48.152;8.590;2022-09-02T17:39:30;3.03;;;2.75;;
10303;SDS011;5197;48.152;8.590;2022-09-02T17:42:00;3.10;;;2.50;;
10303;SDS011;5197;48.152;8.590;2022-09-02T17:44:33;3.53;;;2.67;;
10303;SDS011;5197;48.152;8.590;2022-09-02T17:47:05;3.58;;;2.65;;
10303;SDS011;5197;48.152;8.590;2022-09-02T17:49:34;3.30;;;3.00;;
10303;SDS011;5197;48.152;8.590;2022-09-02T17:52:05;3.67;;;3.00;;
10303;SDS011;5197;48.152;8.590;2022-09-02T17:54:34;3.70;;;3.40;;
10303;SDS011;5197;48.152;8.590;2022-09-02T18:00:18;5.55;;;3.47;;
10303;SDS011;5197;48.152;8.590;2022-09-02T18:11:01;3.30;;;3.00;;
10303;SDS011;5197;48.152;8.590;2022-09-02T18:18:50;5.15;;;2.97;;
10303;SDS011;5197;48.152;8.590;2022-09-02T18:21:37;3.45;;;2.90;;
10303;SDS011;5197;48.152;8.590;2022-09-02T18:30:06;4.20;;;3.15;;